createdAt,value
2017-12-21T00:01:25.177Z,6.53
2017-12-21T00:03:54.837Z,5.47
2017-12-21T00:06:24.679Z,5.57
2017-12-21T00:08:54.451Z,6.20
2017-12-21T00:11:24.235Z,5.53
2017-12-21T00:13:54.075Z,6.23
2017-12-21T00:16:23.748Z,6.10
2017-12-21T00:18:53.567Z,6.40
2017-12-21T00:21:23.365Z,6.70
2017-12-21T00:23:53.226Z,5.97
2017-12-21T00:26:23.056Z,6.90
2017-12-21T00:28:52.847Z,6.10
2017-12-21T00:31:22.616Z,6.43
2017-12-21T00:33:52.432Z,7.23
2017-12-21T00:36:22.292Z,7.30
2017-12-21T00:38:52.162Z,6.63
2017-12-21T00:41:21.972Z,6.33
2017-12-21T00:43:51.772Z,6.20
2017-12-21T00:46:21.600Z,6.47
2017-12-21T00:48:51.379Z,6.20
2017-12-21T00:51:21.231Z,5.53
2017-12-21T00:53:50.995Z,5.83
2017-12-21T00:56:20.807Z,5.90
2017-12-21T00:58:50.655Z,5.80
2017-12-21T01:01:20.428Z,6.43
2017-12-21T01:03:50.268Z,6.00
2017-12-21T01:06:20.095Z,5.10
2017-12-21T01:08:49.889Z,5.20
2017-12-21T01:11:19.746Z,5.63
2017-12-21T01:13:49.525Z,5.87
2017-12-21T01:16:19.286Z,5.90
2017-12-21T01:18:49.104Z,5.07
2017-12-21T01:21:18.898Z,5.90
2017-12-21T01:23:48.736Z,4.73
2017-12-21T01:26:18.541Z,4.90
2017-12-21T01:28:48.392Z,5.43
2017-12-21T01:31:18.222Z,5.50
2017-12-21T01:33:48.018Z,5.27
2017-12-21T01:36:17.816Z,5.53
2017-12-21T01:38:47.648Z,4.83
2017-12-21T01:41:28.983Z,4.20
2017-12-21T01:44:09.098Z,4.70
2017-12-21T01:46:49.692Z,5.10
2017-12-21T01:52:23.647Z,4.90
2017-12-21T01:55:07.345Z,5.90
2017-12-21T01:57:40.557Z,4.90
2017-12-21T02:00:13.906Z,5.13
2017-12-21T02:02:45.817Z,4.90
2017-12-21T02:05:17.307Z,5.53
2017-12-21T02:07:48.757Z,5.07
2017-12-21T02:10:20.431Z,5.50
2017-12-21T02:12:51.777Z,5.13
2017-12-21T02:15:24.703Z,4.40
2017-12-21T02:17:57.102Z,4.90
2017-12-21T02:20:26.789Z,4.50
2017-12-21T02:22:56.331Z,4.23
2017-12-21T02:25:25.942Z,4.87
2017-12-21T02:27:55.237Z,4.97
2017-12-21T02:30:24.771Z,5.13
2017-12-21T02:32:54.354Z,4.77
2017-12-21T02:35:23.926Z,4.43
2017-12-21T02:37:53.507Z,3.40
2017-12-21T02:40:23.025Z,3.80
2017-12-21T02:42:52.871Z,4.67
2017-12-21T02:45:22.760Z,3.60
2017-12-21T02:47:52.321Z,4.00
2017-12-21T02:50:21.953Z,4.10
2017-12-21T02:52:51.603Z,4.30
2017-12-21T02:55:21.481Z,4.07
2017-12-21T02:57:51.093Z,4.13
2017-12-21T03:00:20.936Z,3.47
2017-12-21T03:02:50.767Z,3.63
2017-12-21T03:05:20.322Z,4.10
2017-12-21T03:07:50.166Z,3.87
2017-12-21T03:10:20.070Z,3.03
2017-12-21T03:12:49.635Z,3.50
2017-12-21T03:15:19.154Z,3.50
2017-12-21T03:17:48.994Z,3.47
2017-12-21T03:20:18.843Z,3.77
2017-12-21T03:22:48.450Z,3.07
2017-12-21T03:25:18.331Z,3.00
2017-12-21T03:27:48.112Z,3.40
2017-12-21T03:30:17.945Z,3.50
2017-12-21T03:32:47.775Z,2.73
2017-12-21T03:35:17.624Z,3.50
2017-12-21T03:37:47.486Z,2.93
2017-12-21T03:40:17.318Z,3.20
2017-12-21T03:42:47.116Z,3.37
2017-12-21T03:45:16.968Z,3.00
2017-12-21T03:47:46.758Z,2.83
2017-12-21T03:50:16.594Z,2.97
2017-12-21T03:52:46.397Z,3.00
2017-12-21T03:55:16.706Z,3.27
2017-12-21T03:57:46.569Z,2.93
2017-12-21T04:00:16.659Z,2.80
2017-12-21T04:02:46.287Z,2.80
2017-12-21T04:05:16.111Z,3.13
2017-12-21T04:07:45.952Z,3.50
2017-12-21T04:10:15.756Z,3.27
2017-12-21T04:12:46.815Z,3.27
2017-12-21T04:15:18.294Z,3.17
2017-12-21T04:17:48.263Z,3.13
2017-12-21T04:20:18.064Z,3.30
2017-12-21T04:22:47.892Z,3.57
2017-12-21T04:25:17.741Z,3.83
2017-12-21T04:27:47.861Z,3.20
2017-12-21T04:30:17.345Z,3.90
2017-12-21T04:32:47.212Z,4.23
2017-12-21T04:35:17.738Z,4.53
2017-12-21T04:37:48.139Z,4.43
2017-12-21T04:40:24.432Z,4.40
2017-12-21T04:42:59.681Z,4.40
2017-12-21T04:45:34.457Z,4.83
2017-12-21T04:48:04.972Z,5.00
2017-12-21T04:50:35.746Z,4.30
2017-12-21T04:53:05.534Z,4.47
2017-12-21T04:55:35.335Z,4.30
2017-12-21T04:58:05.188Z,5.10
2017-12-21T05:00:34.997Z,5.40
2017-12-21T05:03:04.890Z,5.43
2017-12-21T05:05:34.720Z,5.93
2017-12-21T05:08:04.564Z,5.43
2017-12-21T05:10:34.392Z,5.90
2017-12-21T05:13:04.015Z,5.37
2017-12-21T05:15:33.880Z,6.03
2017-12-21T05:18:05.248Z,5.60
2017-12-21T05:20:35.092Z,5.67
2017-12-21T05:23:05.913Z,5.70
2017-12-21T05:25:35.803Z,5.20
2017-12-21T05:28:05.603Z,6.80
2017-12-21T05:30:35.222Z,7.00
2017-12-21T05:33:05.063Z,5.73
2017-12-21T05:35:36.077Z,6.87
2017-12-21T05:38:06.550Z,6.20
2017-12-21T05:40:37.120Z,7.57
2017-12-21T05:43:06.934Z,5.67
2017-12-21T05:45:36.737Z,6.23
2017-12-21T05:48:06.566Z,6.60
2017-12-21T05:50:36.382Z,7.40
2017-12-21T05:53:06.216Z,7.47
2017-12-21T05:55:36.041Z,7.10
2017-12-21T05:58:05.872Z,6.60
2017-12-21T06:00:35.430Z,7.40
2017-12-21T06:03:05.324Z,7.27
2017-12-21T06:05:35.334Z,7.30
2017-12-21T06:08:05.127Z,8.20
2017-12-21T06:10:34.956Z,8.23
2017-12-21T06:13:04.792Z,6.90
2017-12-21T06:15:34.595Z,7.73
2017-12-21T06:18:04.426Z,7.70
2017-12-21T06:20:34.229Z,7.20
2017-12-21T06:23:04.090Z,7.50
2017-12-21T06:25:33.878Z,7.60
2017-12-21T06:28:03.720Z,7.53
2017-12-21T06:30:33.526Z,8.37
2017-12-21T06:33:03.368Z,7.60
2017-12-21T06:35:33.151Z,6.77
2017-12-21T06:38:02.956Z,8.87
2017-12-21T06:40:32.787Z,7.20
2017-12-21T06:43:02.316Z,8.30
2017-12-21T06:45:32.154Z,8.10
2017-12-21T06:48:01.946Z,8.10
2017-12-21T06:50:31.771Z,7.70
2017-12-21T06:53:01.603Z,8.53
2017-12-21T06:55:31.431Z,8.43
2017-12-21T06:58:01.436Z,8.80
2017-12-21T07:00:31.284Z,7.53
2017-12-21T07:03:01.071Z,7.97
2017-12-21T07:05:30.870Z,8.47
2017-12-21T07:08:00.730Z,9.13
2017-12-21T07:10:30.506Z,7.77
2017-12-21T07:13:00.299Z,8.20
2017-12-21T07:15:30.148Z,7.87
2017-12-21T07:17:59.970Z,7.90
2017-12-21T07:20:29.683Z,8.00
2017-12-21T07:22:59.492Z,6.87
2017-12-21T07:25:29.278Z,6.93
2017-12-21T07:27:59.118Z,7.50
2017-12-21T07:30:28.704Z,7.57
2017-12-21T07:32:58.548Z,7.80
2017-12-21T07:35:28.336Z,7.47
2017-12-21T07:37:58.109Z,6.77
2017-12-21T07:40:27.927Z,6.97
2017-12-21T07:42:57.711Z,7.20
2017-12-21T07:45:27.186Z,6.30
2017-12-21T07:47:56.965Z,5.70
2017-12-21T07:50:26.818Z,6.77
2017-12-21T07:52:56.666Z,5.80
2017-12-21T07:55:26.447Z,6.33
2017-12-21T07:57:56.239Z,5.43
2017-12-21T08:00:26.062Z,5.30
2017-12-21T08:02:55.857Z,5.13
2017-12-21T08:05:25.643Z,6.03
2017-12-21T08:07:55.503Z,5.30
2017-12-21T08:10:25.316Z,5.40
2017-12-21T08:12:55.163Z,4.73
2017-12-21T08:15:24.943Z,5.30
2017-12-21T08:17:54.714Z,5.73
2017-12-21T08:20:24.538Z,4.80
2017-12-21T08:22:54.397Z,5.90
2017-12-21T08:25:24.167Z,4.20
2017-12-21T08:27:54.016Z,4.70
2017-12-21T08:30:23.798Z,5.13
2017-12-21T08:32:53.647Z,5.23
2017-12-21T08:35:23.449Z,5.00
2017-12-21T08:37:53.210Z,5.13
2017-12-21T08:40:23.031Z,4.80
2017-12-21T08:42:52.800Z,4.70
2017-12-21T08:45:22.660Z,5.00
2017-12-21T08:47:52.455Z,4.30
2017-12-21T08:50:22.238Z,4.00
2017-12-21T08:52:52.085Z,4.73
2017-12-21T08:55:21.862Z,5.33
2017-12-21T08:57:51.687Z,4.10
2017-12-21T09:00:21.468Z,4.73
2017-12-21T09:02:51.314Z,4.40
2017-12-21T09:05:21.129Z,4.43
2017-12-21T09:07:50.908Z,3.40
2017-12-21T09:10:20.756Z,4.03
2017-12-21T09:12:50.545Z,4.20
2017-12-21T09:15:20.393Z,4.00
2017-12-21T09:17:50.238Z,4.67
2017-12-21T09:20:20.106Z,3.43
2017-12-21T09:22:49.976Z,3.50
2017-12-21T09:25:19.801Z,4.00
2017-12-21T09:27:49.648Z,3.73
2017-12-21T09:30:19.608Z,4.87
2017-12-21T09:32:49.537Z,3.80
2017-12-21T09:35:19.356Z,4.10
2017-12-21T09:37:49.231Z,3.63
2017-12-21T09:40:19.074Z,4.43
2017-12-21T09:42:48.960Z,3.30
2017-12-21T09:45:18.766Z,4.07
2017-12-21T09:47:48.603Z,3.93
2017-12-21T09:50:18.449Z,4.10
2017-12-21T09:52:48.320Z,4.10
2017-12-21T09:55:18.252Z,4.30
2017-12-21T09:57:48.119Z,7.70
2017-12-21T10:00:18.028Z,11.57
2017-12-21T10:02:47.923Z,8.53
2017-12-21T10:05:17.717Z,6.93
2017-12-21T10:07:47.515Z,6.37
2017-12-21T10:10:17.343Z,5.50
2017-12-21T10:12:47.174Z,4.70
2017-12-21T10:15:16.990Z,5.10
2017-12-21T10:17:46.823Z,6.03
2017-12-21T10:20:16.648Z,9.40
2017-12-21T10:22:46.504Z,7.83
2017-12-21T10:25:16.384Z,6.93
2017-12-21T10:27:46.266Z,5.10
2017-12-21T10:30:16.104Z,5.40
2017-12-21T10:32:45.981Z,4.70
2017-12-21T10:35:15.818Z,4.90
2017-12-21T10:37:45.670Z,4.50
2017-12-21T10:40:15.527Z,4.63
2017-12-21T10:42:45.360Z,4.70
2017-12-21T10:45:15.213Z,4.40
2017-12-21T10:47:45.023Z,4.23
2017-12-21T10:50:14.916Z,5.37
2017-12-21T10:52:44.683Z,4.70
2017-12-21T10:55:14.529Z,3.70
2017-12-21T10:57:44.383Z,3.57
2017-12-21T11:00:14.223Z,4.67
2017-12-21T11:02:43.832Z,3.90
2017-12-21T11:05:16.275Z,3.67
2017-12-21T11:07:46.260Z,3.50
2017-12-21T11:10:17.834Z,3.83
2017-12-21T11:12:47.741Z,3.60
2017-12-21T11:15:17.631Z,3.90
2017-12-21T11:17:47.477Z,3.00
2017-12-21T11:20:17.375Z,3.57
2017-12-21T11:22:47.222Z,3.53
2017-12-21T11:25:17.087Z,3.27
2017-12-21T11:27:46.623Z,2.80
2017-12-21T11:30:16.459Z,3.03
2017-12-21T11:32:46.417Z,3.17
2017-12-21T11:35:16.226Z,3.30
2017-12-21T11:37:45.886Z,3.00
2017-12-21T11:40:15.713Z,3.30
2017-12-21T11:42:45.375Z,2.80
2017-12-21T11:45:15.235Z,3.07
2017-12-21T11:47:45.141Z,3.23
2017-12-21T11:50:14.969Z,3.90
2017-12-21T11:52:44.790Z,2.07
2017-12-21T11:55:14.650Z,2.83
2017-12-21T11:57:44.480Z,2.43
2017-12-21T12:00:14.052Z,2.07
2017-12-21T12:02:43.927Z,2.20
2017-12-21T12:05:13.784Z,2.37
2017-12-21T12:07:43.662Z,2.80
2017-12-21T12:10:13.523Z,2.07
2017-12-21T12:12:43.359Z,2.13
2017-12-21T12:15:13.219Z,2.60
2017-12-21T12:17:43.061Z,1.87
2017-12-21T12:20:12.892Z,2.20
2017-12-21T12:22:42.703Z,2.07
2017-12-21T12:25:12.556Z,2.10
2017-12-21T12:27:42.384Z,2.30
2017-12-21T12:30:12.248Z,1.90
2017-12-21T12:32:42.113Z,2.47
2017-12-21T12:35:11.796Z,2.07
2017-12-21T12:37:41.640Z,2.00
2017-12-21T12:40:11.431Z,2.70
2017-12-21T12:42:40.923Z,2.00
2017-12-21T12:45:10.816Z,1.50
2017-12-21T12:47:40.888Z,1.90
2017-12-21T12:50:10.731Z,1.70
2017-12-21T12:52:40.574Z,1.60
2017-12-21T12:55:10.390Z,2.33
2017-12-21T12:57:40.238Z,1.60
2017-12-21T13:00:10.085Z,1.60
2017-12-21T13:02:39.993Z,2.07
2017-12-21T13:05:09.858Z,2.23
2017-12-21T13:07:39.719Z,2.10
2017-12-21T13:10:09.532Z,1.90
2017-12-21T13:12:39.386Z,2.63
2017-12-21T13:15:09.191Z,1.90
2017-12-21T13:17:39.000Z,1.70
2017-12-21T13:20:08.859Z,2.13
2017-12-21T13:22:38.672Z,3.10
2017-12-21T13:25:08.530Z,2.17
2017-12-21T13:27:38.311Z,1.87
2017-12-21T13:30:08.129Z,2.10
2017-12-21T13:32:38.027Z,2.33
2017-12-21T13:35:07.875Z,2.37
2017-12-21T13:37:37.768Z,2.00
2017-12-21T13:40:07.593Z,2.77
2017-12-21T13:42:37.419Z,2.07
2017-12-21T13:45:07.259Z,2.70
2017-12-21T13:47:37.061Z,2.37
2017-12-21T13:50:06.916Z,2.23
2017-12-21T13:52:36.752Z,2.83
2017-12-21T13:55:06.562Z,3.37
2017-12-21T13:57:36.439Z,2.10
2017-12-21T14:00:05.988Z,3.17
2017-12-21T14:02:35.695Z,2.87
2017-12-21T14:05:05.563Z,2.70
2017-12-21T14:07:35.364Z,2.90
2017-12-21T14:10:05.241Z,2.53
2017-12-21T14:12:35.080Z,2.50
2017-12-21T14:15:04.985Z,2.50
2017-12-21T14:17:34.860Z,2.47
2017-12-21T14:20:04.681Z,2.00
2017-12-21T14:22:34.540Z,2.00
2017-12-21T14:25:04.420Z,3.40
2017-12-21T14:27:34.262Z,1.93
2017-12-21T14:30:06.991Z,2.03
2017-12-21T14:32:36.938Z,2.43
2017-12-21T14:35:06.754Z,1.90
2017-12-21T14:37:36.607Z,2.80
2017-12-21T14:40:06.501Z,1.80
2017-12-21T14:42:36.283Z,2.37
2017-12-21T14:45:06.124Z,2.00
2017-12-21T14:47:35.910Z,2.00
2017-12-21T14:50:05.754Z,1.90
2017-12-21T14:52:35.582Z,1.80
2017-12-21T14:55:05.398Z,2.50
2017-12-21T14:57:35.252Z,2.20
2017-12-21T15:00:04.648Z,1.87
2017-12-21T15:02:34.492Z,2.53
2017-12-21T15:05:04.275Z,2.53
2017-12-21T15:07:34.152Z,3.37
2017-12-21T15:10:03.938Z,2.50
2017-12-21T15:12:33.755Z,2.90
2017-12-21T15:15:03.568Z,2.57
2017-12-21T15:17:33.420Z,2.63
2017-12-21T15:20:03.245Z,2.23
2017-12-21T15:22:33.051Z,2.67
2017-12-21T15:25:02.883Z,3.00
2017-12-21T15:27:32.696Z,2.70
2017-12-21T15:30:02.523Z,2.63
2017-12-21T15:32:32.544Z,2.87
2017-12-21T15:35:02.375Z,2.77
2017-12-21T15:37:32.146Z,2.53
2017-12-21T15:40:01.981Z,2.80
2017-12-21T15:42:31.849Z,2.60
2017-12-21T15:45:01.644Z,2.50
2017-12-21T15:47:31.480Z,2.57
2017-12-21T15:50:01.242Z,2.40
2017-12-21T15:52:31.055Z,2.70
2017-12-21T15:55:00.879Z,2.77
2017-12-21T15:57:30.724Z,3.50
2017-12-21T16:00:00.515Z,3.37
2017-12-21T16:02:30.108Z,2.67
2017-12-21T16:04:59.942Z,3.27
2017-12-21T16:07:29.734Z,3.30
2017-12-21T16:09:59.571Z,3.33
2017-12-21T16:12:29.463Z,3.90
2017-12-21T16:14:59.331Z,3.70
2017-12-21T16:17:44.358Z,3.57
2017-12-21T16:20:15.158Z,3.20
2017-12-21T16:22:45.010Z,3.97
2017-12-21T16:25:14.824Z,3.40
2017-12-21T16:27:44.432Z,4.07
2017-12-21T16:30:14.288Z,4.60
2017-12-21T16:32:44.099Z,3.97
2017-12-21T16:35:13.925Z,4.17
2017-12-21T16:37:43.764Z,4.10
2017-12-21T16:40:29.761Z,4.13
2017-12-21T16:43:04.310Z,4.27
2017-12-21T16:45:44.809Z,3.83
2017-12-21T16:48:30.260Z,3.60
2017-12-21T16:51:12.932Z,3.70
2017-12-21T16:53:52.178Z,4.20
2017-12-21T16:56:36.947Z,4.40
2017-12-21T16:59:17.759Z,3.80
2017-12-21T17:02:07.665Z,4.00
2017-12-21T17:04:53.494Z,3.87
2017-12-21T17:07:38.373Z,3.37
2017-12-21T17:10:20.269Z,3.90
2017-12-21T17:13:02.517Z,3.90
2017-12-21T17:18:53.777Z,3.60
2017-12-21T17:21:36.162Z,3.00
2017-12-21T17:24:16.740Z,3.90
2017-12-21T17:26:56.342Z,3.80
2017-12-21T17:29:37.816Z,3.03
2017-12-21T17:32:19.986Z,3.40
2017-12-21T17:34:57.110Z,3.10
2017-12-21T17:37:38.450Z,3.30
2017-12-21T17:40:24.558Z,3.87
2017-12-21T17:43:05.250Z,3.20
2017-12-21T17:45:51.087Z,3.80
2017-12-21T17:48:32.418Z,3.90
2017-12-21T17:51:16.706Z,4.13
2017-12-21T17:54:00.093Z,4.60
2017-12-21T17:56:42.631Z,4.60
2017-12-21T17:59:27.132Z,4.90
2017-12-21T18:02:02.753Z,4.37
2017-12-21T18:04:32.593Z,4.47
2017-12-21T18:07:02.404Z,4.40
2017-12-21T18:09:40.410Z,4.77
2017-12-21T18:12:25.577Z,4.40
2017-12-21T18:15:11.945Z,3.30
2017-12-21T18:17:56.476Z,5.03
2017-12-21T18:20:38.810Z,4.47
2017-12-21T18:23:24.593Z,4.60
2017-12-21T18:26:08.757Z,4.40
2017-12-21T18:28:47.935Z,4.93
2017-12-21T18:31:25.180Z,3.87
2017-12-21T18:34:11.638Z,3.97
2017-12-21T18:36:54.365Z,4.27
2017-12-21T18:39:42.828Z,4.20
2017-12-21T18:42:30.819Z,3.20
2017-12-21T18:45:18.003Z,3.83
2017-12-21T18:48:03.439Z,3.77
2017-12-21T18:50:44.135Z,3.57
2017-12-21T18:53:29.087Z,3.10
2017-12-21T18:56:16.014Z,3.40
2017-12-21T18:59:02.241Z,3.60
2017-12-21T19:01:45.759Z,4.47
2017-12-21T19:04:29.376Z,3.30
2017-12-21T19:07:18.149Z,3.23
2017-12-21T19:10:00.826Z,3.70
2017-12-21T19:12:49.296Z,3.20
2017-12-21T19:15:30.926Z,3.43
2017-12-21T19:18:07.366Z,3.13
2017-12-21T19:20:46.577Z,3.43
2017-12-21T19:23:18.020Z,3.10
2017-12-21T19:25:49.875Z,3.17
2017-12-21T19:28:19.716Z,3.60
2017-12-21T19:30:49.559Z,3.73
2017-12-21T19:33:19.437Z,3.37
2017-12-21T19:35:51.198Z,3.73
2017-12-21T19:38:21.110Z,4.10
2017-12-21T19:40:50.957Z,3.80
2017-12-21T19:43:22.664Z,3.87
2017-12-21T19:45:52.208Z,4.03
2017-12-21T19:48:22.133Z,3.23
2017-12-21T19:50:52.019Z,3.50
2017-12-21T19:53:21.856Z,4.20
2017-12-21T19:55:51.404Z,2.80
2017-12-21T19:58:21.247Z,3.27
2017-12-21T20:00:51.140Z,3.03
2017-12-21T20:03:21.006Z,3.33
2017-12-21T20:05:50.799Z,3.03
2017-12-21T20:08:20.665Z,3.50
2017-12-21T20:10:51.050Z,3.53
2017-12-21T20:13:20.883Z,4.37
2017-12-21T20:15:54.440Z,3.73
2017-12-21T20:18:24.635Z,3.60
2017-12-21T20:20:54.483Z,3.83
2017-12-21T20:23:24.311Z,3.37
2017-12-21T20:26:01.422Z,3.90
2017-12-21T20:28:32.556Z,4.10
2017-12-21T20:31:02.335Z,4.30
2017-12-21T20:33:36.500Z,3.53
2017-12-21T20:36:09.281Z,4.30
2017-12-21T20:38:43.470Z,4.60
2017-12-21T20:41:28.857Z,5.10
2017-12-21T20:44:19.224Z,4.80
2017-12-21T20:47:07.851Z,5.13
2017-12-21T20:49:50.362Z,4.60
2017-12-21T20:52:37.013Z,5.20
2017-12-21T20:58:18.506Z,4.87
2017-12-21T21:01:08.395Z,4.70
2017-12-21T21:03:57.930Z,5.50
2017-12-21T21:06:47.937Z,5.70
2017-12-21T21:09:36.816Z,5.93
2017-12-21T21:12:25.954Z,5.70
2017-12-21T21:15:14.052Z,5.80
2017-12-21T21:18:02.851Z,6.83
2017-12-21T21:20:49.738Z,6.90
2017-12-21T21:23:37.123Z,6.70
2017-12-21T21:26:26.395Z,6.63
2017-12-21T21:29:13.799Z,7.07
2017-12-21T21:31:59.674Z,6.83
2017-12-21T21:34:44.521Z,7.07
2017-12-21T21:37:28.568Z,6.83
2017-12-21T21:40:17.840Z,7.13
2017-12-21T21:42:50.014Z,8.87
2017-12-21T21:45:19.858Z,7.93
2017-12-21T21:47:49.630Z,8.60
2017-12-21T21:50:19.446Z,8.43
2017-12-21T21:52:49.282Z,8.00
2017-12-21T21:55:19.082Z,7.70
2017-12-21T21:57:48.932Z,8.93
2017-12-21T22:00:18.513Z,8.67
2017-12-21T22:02:48.398Z,9.13
2017-12-21T22:05:18.246Z,9.83
2017-12-21T22:07:48.143Z,9.50
2017-12-21T22:10:17.939Z,8.70
2017-12-21T22:12:47.731Z,10.10
2017-12-21T22:15:17.570Z,8.70
2017-12-21T22:17:47.368Z,10.33
2017-12-21T22:20:17.251Z,10.07
2017-12-21T22:22:47.094Z,11.07
2017-12-21T22:25:16.942Z,11.37
2017-12-21T22:27:46.783Z,11.13
2017-12-21T22:30:16.635Z,12.07
2017-12-21T22:32:46.477Z,10.70
2017-12-21T22:35:16.394Z,10.87
2017-12-21T22:37:46.264Z,10.77
2017-12-21T22:40:21.285Z,11.60
2017-12-21T22:42:51.161Z,10.63
2017-12-21T22:45:21.009Z,12.47
2017-12-21T22:47:50.824Z,12.10
2017-12-21T22:50:20.666Z,11.30
2017-12-21T22:52:50.495Z,11.70
2017-12-21T22:55:20.362Z,9.70
2017-12-21T22:57:50.170Z,11.97
2017-12-21T23:00:25.323Z,12.20
2017-12-21T23:02:54.911Z,11.60
2017-12-21T23:05:24.858Z,12.60
2017-12-21T23:07:54.722Z,11.60
2017-12-21T23:10:24.512Z,10.87
2017-12-21T23:12:54.331Z,11.53
2017-12-21T23:15:24.171Z,11.23
2017-12-21T23:17:53.807Z,11.63
2017-12-21T23:20:23.621Z,12.00
2017-12-21T23:22:53.471Z,12.90
2017-12-21T23:25:23.266Z,12.97
2017-12-21T23:27:53.071Z,12.70
2017-12-21T23:30:22.972Z,11.53
2017-12-21T23:32:53.033Z,12.00
2017-12-21T23:35:22.633Z,10.80
2017-12-21T23:37:52.587Z,11.50
2017-12-21T23:40:23.655Z,12.40
2017-12-21T23:42:53.581Z,11.67
2017-12-21T23:45:32.875Z,10.60
2017-12-21T23:48:06.861Z,10.80
2017-12-21T23:50:36.675Z,11.20
2017-12-21T23:53:06.200Z,11.23
2017-12-21T23:55:36.027Z,10.37
2017-12-21T23:58:05.975Z,11.00
